White Fox, Canada
Current Conditions -  °F | °C
As of 9:08 AM on Monday 22 Dec 2014 (Local Time) from CYBU Reporting Station
Light Snow Light Snow  
Wind Chill: 15°   Ceiling: 300
Heat Index: 23°   Visibility: 1mi
Dew Point: 23°   Wind: 7mph
Humidity: 100%   Direction: 360°N
Pressure: 29.72"   Gusts: NA
Location:  53.45°N, 104.08°W
Report Text: CYBU 221508Z AUTO 36006KT 1SM -SN -FZRA OVC003 M05/M05 A2972 RMK ICG SLP090
Loading
Personal Weather Stations






























Interactive Weather Map New forecast layout! Learn more

10-Day Weather Forecast

Advertisements
Track Severe Weather on mobile